Time;durP1;ratioP1;P1;durP2;ratioP2;P2;SDS_P1;SDS_P2;PMS_P1;PMS_P2;Temp;Humidity;BMP_temperature;BMP_pressure;BME280_temperature;BME280_humidity;BME280_pressure;Samples;Min_cycle;Max_cycle;Signal;HPM_P1;HPM_P2
2022/03/02 00:01:29;;;;;;;0.67;0.67;;;;;;;;;;5012350;28;20540;-62
2022/03/02 00:03:55;;;;;;;0.82;0.82;;;;;;;;;;5012739;28;20420;-62
2022/03/02 00:06:21;;;;;;;0.60;0.60;;;;;;;;;;5012574;28;20170;-62
2022/03/02 00:08:47;;;;;;;0.90;0.90;;;;;;;;;;5012493;28;20486;-62
2022/03/02 00:11:13;;;;;;;0.80;0.80;;;;;;;;;;5012251;28;20466;-62
2022/03/02 00:13:39;;;;;;;0.88;0.88;;;;;;;;;;5012636;28;20419;-62
2022/03/02 00:16:05;;;;;;;0.70;0.70;;;;;;;;;;5011691;28;20260;-62
2022/03/02 00:18:32;;;;;;;0.80;0.80;;;;;;;;;;5012446;28;20620;-62
2022/03/02 00:20:57;;;;;;;0.70;0.70;;;;;;;;;;5012005;28;20229;-62
2022/03/02 00:23:30;;;;;;;0.70;0.70;;;;;;;;;;5012310;28;20651;-62
2022/03/02 00:25:56;;;;;;;0.80;0.80;;;;;;;;;;5012249;28;20475;-62
2022/03/02 00:28:22;;;;;;;0.70;0.70;;;;;;;;;;5012211;28;20189;-62
2022/03/02 00:30:48;;;;;;;0.68;0.68;;;;;;;;;;5012028;28;20269;-62
2022/03/02 00:33:14;;;;;;;0.80;0.80;;;;;;;;;;5012232;28;20285;-61
2022/03/02 00:35:40;;;;;;;0.70;0.70;;;;;;;;;;5012159;28;20593;-62
2022/03/02 00:38:10;;;;;;;0.67;0.67;;;;;;;;;;5012164;28;20210;-62
2022/03/02 00:40:36;;;;;;;0.63;0.63;;;;;;;;;;5011643;28;20459;-62
2022/03/02 00:43:02;;;;;;;0.60;0.60;;;;;;;;;;5012183;28;20236;-62
2022/03/02 00:45:27;;;;;;;0.67;0.67;;;;;;;;;;5011819;28;20495;-61
2022/03/02 00:47:54;;;;;;;0.50;0.50;;;;;;;;;;5011794;28;20448;-62
2022/03/02 00:50:19;;;;;;;0.90;0.90;;;;;;;;;;5011664;28;20446;-62
2022/03/02 00:52:46;;;;;;;0.50;0.50;;;;;;;;;;5011859;28;20196;-62
2022/03/02 00:55:12;;;;;;;0.70;0.70;;;;;;;;;;5011809;28;20173;-62
2022/03/02 00:57:38;;;;;;;0.70;0.70;;;;;;;;;;5011505;28;20194;-62
2022/03/02 01:00:06;;;;;;;0.57;0.57;;;;;;;;;;5011725;28;20299;-62
2022/03/02 01:02:32;;;;;;;0.60;0.60;;;;;;;;;;5011757;28;20405;-62
2022/03/02 01:04:58;;;;;;;0.70;0.70;;;;;;;;;;5011892;28;20181;-62
2022/03/02 01:07:24;;;;;;;0.80;0.80;;;;;;;;;;5011786;28;20742;-62
2022/03/02 01:09:50;;;;;;;0.97;0.97;;;;;;;;;;5011744;28;20771;-62
2022/03/02 01:12:16;;;;;;;0.70;0.70;;;;;;;;;;5010947;28;20811;-62
2022/03/02 01:14:42;;;;;;;0.80;0.80;;;;;;;;;;5011746;28;20840;-62
2022/03/02 01:17:08;;;;;;;0.70;0.70;;;;;;;;;;5011669;28;20201;-62
2022/03/02 01:19:35;;;;;;;0.70;0.70;;;;;;;;;;5011708;28;20408;-62
2022/03/02 01:22:01;;;;;;;0.70;0.70;;;;;;;;;;5011646;28;20460;-62
2022/03/02 01:24:27;;;;;;;0.70;0.70;;;;;;;;;;5011608;28;20174;-62
2022/03/02 01:26:53;;;;;;;0.70;0.70;;;;;;;;;;5011465;28;20463;-62
2022/03/02 01:29:19;;;;;;;0.70;0.70;;;;;;;;;;5015581;28;20637;-62
2022/03/02 01:31:45;;;;;;;0.70;0.70;;;;;;;;;;5015193;28;20440;-62
2022/03/02 01:34:11;;;;;;;0.70;0.70;;;;;;;;;;5015488;28;20205;-62
2022/03/02 01:36:37;;;;;;;0.70;0.70;;;;;;;;;;5015444;28;20412;-62
2022/03/02 01:39:03;;;;;;;0.77;0.77;;;;;;;;;;4997612;28;20432;-62
2022/03/02 01:41:29;;;;;;;0.80;0.80;;;;;;;;;;5014996;28;20452;-62
2022/03/02 01:43:55;;;;;;;0.60;0.60;;;;;;;;;;5015332;28;20170;-62
2022/03/02 01:46:22;;;;;;;0.80;0.80;;;;;;;;;;5015179;28;20401;-62
2022/03/02 01:48:48;;;;;;;0.80;0.80;;;;;;;;;;5014985;28;20300;-62
2022/03/02 01:51:15;;;;;;;0.70;0.70;;;;;;;;;;5014875;28;20174;-62
2022/03/02 01:53:41;;;;;;;0.60;0.60;;;;;;;;;;5015177;28;20182;-62
2022/03/02 01:56:07;;;;;;;0.60;0.60;;;;;;;;;;5015087;28;20186;-62
2022/03/02 01:58:33;;;;;;;0.70;0.70;;;;;;;;;;5014950;28;20198;-62
2022/03/02 02:01:00;;;;;;;0.80;0.80;;;;;;;;;;5014761;28;20903;-62
2022/03/02 02:03:27;;;;;;;0.60;0.60;;;;;;;;;;5015045;28;20177;-62
2022/03/02 02:05:52;;;;;;;0.65;0.65;;;;;;;;;;5014470;28;20182;-62
2022/03/02 02:08:19;;;;;;;0.70;0.70;;;;;;;;;;5014770;28;20681;-62
2022/03/02 02:10:45;;;;;;;0.70;0.70;;;;;;;;;;5014569;28;20257;-62
2022/03/02 02:13:11;;;;;;;0.60;0.60;;;;;;;;;;5014844;28;20281;-62
2022/03/02 02:15:37;;;;;;;0.70;0.70;;;;;;;;;;5014953;28;20185;-61
2022/03/02 02:18:03;;;;;;;0.70;0.70;;;;;;;;;;5014884;28;20288;-61
2022/03/02 02:20:33;;;;;;;0.75;0.75;;;;;;;;;;5014698;28;20244;-61
2022/03/02 02:22:59;;;;;;;0.60;0.60;;;;;;;;;;5014676;28;20166;-62
2022/03/02 02:25:25;;;;;;;0.60;0.60;;;;;;;;;;5014593;28;20240;-62
2022/03/02 02:27:51;;;;;;;0.70;0.70;;;;;;;;;;5014398;28;20765;-62
2022/03/02 02:30:17;;;;;;;0.97;0.97;;;;;;;;;;5014039;28;20841;-62
2022/03/02 02:32:44;;;;;;;0.60;0.60;;;;;;;;;;5013763;28;20459;-62
2022/03/02 02:35:10;;;;;;;0.70;0.70;;;;;;;;;;5014543;28;20220;-62
2022/03/02 02:37:37;;;;;;;0.70;0.70;;;;;;;;;;5014249;28;20189;-62
2022/03/02 02:40:05;;;;;;;0.70;0.70;;;;;;;;;;5013012;28;20564;-61
2022/03/02 02:42:31;;;;;;;0.73;0.73;;;;;;;;;;5014097;28;20181;-62
2022/03/02 02:44:57;;;;;;;0.70;0.70;;;;;;;;;;4996550;28;20192;-62
2022/03/02 02:47:23;;;;;;;0.70;0.70;;;;;;;;;;5013712;28;20982;-61
2022/03/02 02:49:49;;;;;;;0.75;0.75;;;;;;;;;;5013304;28;20248;-62
2022/03/02 02:52:16;;;;;;;0.80;0.80;;;;;;;;;;5013038;28;20596;-61
2022/03/02 02:54:42;;;;;;;0.70;0.70;;;;;;;;;;5012977;28;20182;-62
2022/03/02 02:57:08;;;;;;;0.90;0.90;;;;;;;;;;5012772;28;20285;-62
2022/03/02 02:59:34;;;;;;;0.90;0.90;;;;;;;;;;5012777;28;20209;-61
2022/03/02 03:02:00;;;;;;;0.80;0.80;;;;;;;;;;5012514;28;20205;-62
2022/03/02 03:04:26;;;;;;;0.60;0.60;;;;;;;;;;5012926;28;20409;-62
2022/03/02 03:06:52;;;;;;;0.90;0.90;;;;;;;;;;5012685;28;21096;-62
2022/03/02 03:09:18;;;;;;;0.90;0.90;;;;;;;;;;5012715;28;20436;-62
2022/03/02 03:11:44;;;;;;;0.77;0.77;;;;;;;;;;5012438;28;20749;-62
2022/03/02 03:14:14;;;;;;;0.80;0.80;;;;;;;;;;5012520;28;20783;-62
2022/03/02 03:16:40;;;;;;;1.00;1.00;;;;;;;;;;5012597;28;20178;-62
2022/03/02 03:19:06;;;;;;;1.00;1.00;;;;;;;;;;5012610;28;20544;-62
2022/03/02 03:21:33;;;;;;;0.70;0.70;;;;;;;;;;5012216;28;20205;-62
2022/03/02 03:23:59;;;;;;;0.90;0.90;;;;;;;;;;5012409;28;20178;-62
2022/03/02 03:26:25;;;;;;;0.80;0.80;;;;;;;;;;5012389;28;20209;-62
2022/03/02 03:28:51;;;;;;;0.80;0.80;;;;;;;;;;5011747;28;20661;-62
2022/03/02 03:31:18;;;;;;;0.88;0.88;;;;;;;;;;5012142;28;20177;-61
2022/03/02 03:33:44;;;;;;;1.10;1.10;;;;;;;;;;5012398;28;20228;-62
2022/03/02 03:36:10;;;;;;;0.80;0.80;;;;;;;;;;5012301;28;20170;-62
2022/03/02 03:38:35;;;;;;;0.93;0.93;;;;;;;;;;5012117;28;20209;-62
2022/03/02 03:41:01;;;;;;;0.90;0.90;;;;;;;;;;5011914;28;20692;-61
2022/03/02 03:43:27;;;;;;;1.07;1.07;;;;;;;;;;5012180;28;20496;-62
2022/03/02 03:45:53;;;;;;;0.80;0.80;;;;;;;;;;5012350;28;20843;-62
2022/03/02 03:48:19;;;;;;;1.10;1.10;;;;;;;;;;5006810;23;1036333;-59
2022/03/02 03:50:46;;;;;;;0.93;0.93;;;;;;;;;;5030916;28;20173;-58
2022/03/02 03:53:12;;;;;;;1.00;1.00;;;;;;;;;;5032431;28;20608;-58
2022/03/02 03:55:39;;;;;;;1.00;1.00;;;;;;;;;;5032500;28;20196;-58
2022/03/02 03:58:05;;;;;;;0.90;0.90;;;;;;;;;;5040356;28;20195;-59
2022/03/02 04:00:31;;;;;;;0.93;0.93;;;;;;;;;;5051986;28;20206;-58
2022/03/02 04:02:57;;;;;;;1.05;1.05;;;;;;;;;;5052321;28;20172;-60
2022/03/02 04:05:23;;;;;;;0.93;0.93;;;;;;;;;;5052286;28;20183;-59
2022/03/02 04:07:50;;;;;;;1.15;1.15;;;;;;;;;;5052131;28;20584;-61
2022/03/02 04:10:16;;;;;;;1.25;1.25;;;;;;;;;;5051755;28;20172;-59
2022/03/02 04:12:43;;;;;;;0.82;0.82;;;;;;;;;;5052084;28;20172;-59
2022/03/02 04:15:09;;;;;;;1.00;1.00;;;;;;;;;;5051955;28;20709;-60
2022/03/02 04:17:36;;;;;;;1.10;1.10;;;;;;;;;;5051969;28;20199;-58
2022/03/02 04:20:02;;;;;;;0.98;0.98;;;;;;;;;;5051801;28;20180;-60
2022/03/02 04:22:28;;;;;;;0.70;0.70;;;;;;;;;;5051729;28;20200;-60
2022/03/02 04:24:54;;;;;;;1.00;1.00;;;;;;;;;;5051628;28;20207;-60
2022/03/02 04:27:20;;;;;;;1.00;1.00;;;;;;;;;;5051690;28;20547;-58
2022/03/02 04:29:45;;;;;;;1.00;1.00;;;;;;;;;;5051763;28;20254;-60
2022/03/02 04:32:12;;;;;;;0.80;0.80;;;;;;;;;;5051503;28;20414;-59
2022/03/02 04:34:38;;;;;;;1.08;1.08;;;;;;;;;;5051862;28;20782;-60
2022/03/02 04:37:04;;;;;;;1.10;1.10;;;;;;;;;;5052055;28;20175;-61
2022/03/02 04:39:30;;;;;;;1.00;1.00;;;;;;;;;;5054919;28;20435;-59
2022/03/02 04:41:56;;;;;;;1.17;1.17;;;;;;;;;;5051526;28;20345;-60
2022/03/02 04:44:21;;;;;;;0.88;0.88;;;;;;;;;;5051598;28;20460;-58
2022/03/02 04:46:51;;;;;;;0.77;0.77;;;;;;;;;;5051633;28;20786;-60
2022/03/02 04:49:18;;;;;;;1.00;1.00;;;;;;;;;;5051302;28;20438;-59
2022/03/02 04:51:44;;;;;;;1.00;1.00;;;;;;;;;;5051533;28;20172;-59
2022/03/02 04:55:05;;;;;;;0.80;0.80;;;;;;;;;;5052008;28;20180;-58
2022/03/02 04:56:56;;;;;;;0.80;0.80;;;;;;;;;;5051244;28;20675;-60
2022/03/02 04:59:22;;;;;;;0.80;0.80;;;;;;;;;;5051340;28;20191;-59
2022/03/02 05:01:48;;;;;;;0.77;0.77;;;;;;;;;;5050615;28;20198;-60
2022/03/02 05:04:14;;;;;;;0.70;0.70;;;;;;;;;;5051284;28;20399;-58
2022/03/02 05:06:40;;;;;;;0.80;0.80;;;;;;;;;;5051452;28;20460;-60
2022/03/02 05:09:06;;;;;;;0.80;0.80;;;;;;;;;;5051234;28;20785;-60
2022/03/02 05:11:32;;;;;;;0.90;0.90;;;;;;;;;;5051177;28;20894;-60
2022/03/02 05:13:58;;;;;;;0.90;0.90;;;;;;;;;;5051392;28;20407;-58
2022/03/02 05:16:24;;;;;;;0.90;0.90;;;;;;;;;;5051132;28;20415;-59
2022/03/02 05:18:50;;;;;;;0.90;0.90;;;;;;;;;;5051027;28;20531;-58
2022/03/02 05:21:16;;;;;;;1.00;1.00;;;;;;;;;;5050779;28;20206;-60
2022/03/02 05:23:42;;;;;;;0.80;0.80;;;;;;;;;;5051112;28;20251;-60
2022/03/02 05:26:09;;;;;;;1.13;1.13;;;;;;;;;;5051005;28;20200;-60
2022/03/02 05:28:35;;;;;;;1.00;1.00;;;;;;;;;;5054380;28;20614;-57
2022/03/02 05:31:01;;;;;;;1.15;1.15;;;;;;;;;;5050827;28;20226;-57
2022/03/02 05:33:27;;;;;;;1.00;1.00;;;;;;;;;;5050980;28;20176;-58
2022/03/02 05:35:53;;;;;;;1.00;1.00;;;;;;;;;;5050889;28;20175;-59
2022/03/02 05:38:18;;;;;;;1.00;1.00;;;;;;;;;;5050941;28;20280;-59
2022/03/02 05:40:44;;;;;;;1.03;1.03;;;;;;;;;;5050769;28;20460;-57
2022/03/02 05:43:10;;;;;;;1.23;1.23;;;;;;;;;;5050858;28;20406;-60
2022/03/02 05:45:36;;;;;;;1.27;1.27;;;;;;;;;;5050759;28;20406;-60
2022/03/02 05:48:02;;;;;;;1.30;1.30;;;;;;;;;;5050585;28;20442;-59
2022/03/02 05:50:28;;;;;;;1.20;1.20;;;;;;;;;;5051174;28;20413;-60
2022/03/02 05:52:54;;;;;;;1.10;1.10;;;;;;;;;;5050777;28;20361;-60
2022/03/02 05:55:20;;;;;;;1.20;1.20;;;;;;;;;;5050656;28;20402;-59
2022/03/02 05:57:46;;;;;;;0.93;0.93;;;;;;;;;;5050428;28;20422;-57
2022/03/02 06:00:13;;;;;;;1.42;1.42;;;;;;;;;;5049882;28;20200;-59
2022/03/02 06:02:40;;;;;;;1.00;1.00;;;;;;;;;;5050465;28;20208;-59
2022/03/02 06:05:09;;;;;;;1.10;1.10;;;;;;;;;;5050619;28;20183;-59
2022/03/02 06:07:35;;;;;;;1.10;1.10;;;;;;;;;;5050648;28;20229;-60
2022/03/02 06:10:01;;;;;;;1.00;1.00;;;;;;;;;;5050694;28;20172;-60
2022/03/02 06:12:27;;;;;;;1.00;1.00;;;;;;;;;;5050531;28;20175;-60
2022/03/02 06:14:53;;;;;;;1.13;1.13;;;;;;;;;;5053792;28;20179;-60
2022/03/02 06:17:19;;;;;;;1.10;1.10;;;;;;;;;;5053996;28;20180;-59
2022/03/02 06:19:46;;;;;;;0.80;0.80;;;;;;;;;;5054260;28;20214;-60
2022/03/02 06:22:12;;;;;;;0.90;0.90;;;;;;;;;;5054110;28;20208;-61
2022/03/02 06:24:38;;;;;;;1.30;1.30;;;;;;;;;;5054171;28;20175;-60
2022/03/02 06:27:04;;;;;;;1.10;1.10;;;;;;;;;;5054152;28;20195;-60
2022/03/02 06:29:30;;;;;;;1.20;1.20;;;;;;;;;;5053770;28;20184;-60
2022/03/02 06:31:57;;;;;;;0.98;0.98;;;;;;;;;;5053454;28;20178;-59
2022/03/02 06:34:23;;;;;;;1.15;1.15;;;;;;;;;;5053769;28;20168;-60
2022/03/02 06:36:50;;;;;;;1.03;1.03;;;;;;;;;;5053875;28;20654;-60
2022/03/02 06:39:20;;;;;;;1.63;1.63;;;;;;;;;;5053682;28;20426;-59
2022/03/02 06:42:09;;;;;;;0.90;0.90;;;;;;;;;;5053437;28;20223;-59
2022/03/02 06:44:38;;;;;;;1.05;1.05;;;;;;;;;;5039039;28;20176;-58
2022/03/02 06:47:05;;;;;;;1.65;1.65;;;;;;;;;;5053708;28;20289;-60
2022/03/02 06:49:44;;;;;;;0.98;0.98;;;;;;;;;;5053402;28;20214;-59
2022/03/02 06:52:11;;;;;;;0.80;0.80;;;;;;;;;;5053445;28;20254;-60
2022/03/02 06:54:42;;;;;;;1.35;1.35;;;;;;;;;;5053686;28;20206;-61
2022/03/02 06:57:10;;;;;;;0.85;0.85;;;;;;;;;;5053370;28;20168;-61
2022/03/02 06:59:40;;;;;;;1.92;1.92;;;;;;;;;;5052994;28;20176;-61
2022/03/02 07:02:07;;;;;;;1.00;1.00;;;;;;;;;;5053190;28;20206;-60
2022/03/02 07:04:35;;;;;;;0.85;0.85;;;;;;;;;;5053492;28;20169;-60
2022/03/02 07:07:02;;;;;;;1.00;1.00;;;;;;;;;;5053347;28;20167;-59
2022/03/02 07:09:28;;;;;;;1.17;1.17;;;;;;;;;;5053222;28;20603;-60
2022/03/02 07:11:55;;;;;;;0.95;0.95;;;;;;;;;;5052949;28;20258;-60
2022/03/02 07:14:21;;;;;;;1.02;1.02;;;;;;;;;;5053271;28;20607;-61
2022/03/02 07:16:47;;;;;;;1.20;1.20;;;;;;;;;;5053324;28;20176;-60
2022/03/02 07:19:13;;;;;;;1.00;1.00;;;;;;;;;;5053001;28;20188;-61
2022/03/02 07:21:41;;;;;;;1.02;1.02;;;;;;;;;;5052803;28;20520;-61
2022/03/02 07:24:22;;;;;;;0.80;0.80;;;;;;;;;;5051073;28;20184;-61
2022/03/02 07:26:51;;;;;;;0.95;0.95;;;;;;;;;;5052735;28;20199;-60
2022/03/02 07:29:19;;;;;;;0.80;0.80;;;;;;;;;;5052650;28;20180;-60
2022/03/02 07:31:45;;;;;;;0.70;0.70;;;;;;;;;;5051577;28;20194;-60
2022/03/02 07:34:12;;;;;;;1.00;1.00;;;;;;;;;;5052479;28;20167;-59
2022/03/02 07:36:40;;;;;;;0.90;0.90;;;;;;;;;;5052595;28;20184;-59
2022/03/02 07:39:06;;;;;;;0.95;0.95;;;;;;;;;;5052394;28;20187;-58
2022/03/02 07:41:32;;;;;;;0.90;0.90;;;;;;;;;;5051784;28;20203;-60
2022/03/02 07:43:58;;;;;;;0.82;0.82;;;;;;;;;;5052301;28;20176;-59
2022/03/02 07:46:28;;;;;;;0.77;0.77;;;;;;;;;;5052435;28;20511;-57
2022/03/02 07:48:54;;;;;;;0.90;0.90;;;;;;;;;;5052241;28;20465;-59
2022/03/02 07:51:20;;;;;;;0.90;0.90;;;;;;;;;;5052186;28;20211;-58
2022/03/02 07:53:48;;;;;;;0.93;0.93;;;;;;;;;;5051884;28;20751;-60
2022/03/02 07:56:15;;;;;;;0.80;0.80;;;;;;;;;;5054012;28;20314;-59
2022/03/02 07:58:41;;;;;;;0.80;0.80;;;;;;;;;;5052351;28;20206;-59
2022/03/02 08:01:08;;;;;;;0.60;0.60;;;;;;;;;;5052027;28;20203;-58
2022/03/02 08:03:38;;;;;;;0.70;0.70;;;;;;;;;;5051945;28;20275;-60
2022/03/02 08:06:04;;;;;;;1.05;1.05;;;;;;;;;;5052002;28;20531;-60
2022/03/02 08:08:30;;;;;;;1.10;1.10;;;;;;;;;;5051547;28;20192;-60
2022/03/02 08:10:56;;;;;;;1.10;1.10;;;;;;;;;;5051655;28;20635;-60
2022/03/02 08:13:23;;;;;;;1.20;1.20;;;;;;;;;;5051818;28;20402;-59
2022/03/02 08:15:50;;;;;;;1.92;1.92;;;;;;;;;;5050559;28;20849;-59
2022/03/02 08:18:17;;;;;;;1.00;1.00;;;;;;;;;;5051757;28;20283;-59
2022/03/02 08:20:49;;;;;;;1.10;1.10;;;;;;;;;;5051100;28;20189;-60
2022/03/02 08:23:15;;;;;;;0.93;0.93;;;;;;;;;;5051705;28;20168;-59
2022/03/02 08:25:41;;;;;;;1.73;1.73;;;;;;;;;;5051219;28;20586;-60
2022/03/02 08:28:09;;;;;;;1.10;1.10;;;;;;;;;;5051350;28;20302;-60
2022/03/02 08:30:36;;;;;;;1.20;1.20;;;;;;;;;;5050938;28;20219;-60
2022/03/02 08:33:03;;;;;;;1.27;1.27;;;;;;;;;;5050693;28;20203;-60
2022/03/02 08:35:34;;;;;;;1.17;1.17;;;;;;;;;;5050215;28;20177;-59
2022/03/02 08:38:01;;;;;;;1.10;1.10;;;;;;;;;;5051021;28;20207;-59
2022/03/02 08:40:27;;;;;;;0.80;0.80;;;;;;;;;;5051352;28;20509;-60
2022/03/02 08:42:54;;;;;;;0.95;0.95;;;;;;;;;;5051877;28;20199;-59
2022/03/02 08:45:20;;;;;;;0.90;0.90;;;;;;;;;;5051796;28;20177;-59
2022/03/02 08:47:46;;;;;;;1.60;1.60;;;;;;;;;;5056134;28;20202;-54
2022/03/02 08:50:12;;;;;;;0.90;0.90;;;;;;;;;;5051544;28;20185;-58
2022/03/02 08:52:38;;;;;;;0.60;0.60;;;;;;;;;;5051779;28;20182;-59
2022/03/02 08:55:05;;;;;;;0.73;0.73;;;;;;;;;;5049321;28;20486;-58
2022/03/02 08:57:32;;;;;;;0.95;0.95;;;;;;;;;;5051374;28;20432;-61
2022/03/02 08:59:59;;;;;;;1.00;1.00;;;;;;;;;;5050821;28;20600;-60
2022/03/02 09:02:29;;;;;;;1.10;1.10;;;;;;;;;;5051071;28;20309;-62
2022/03/02 09:04:59;;;;;;;0.80;0.80;;;;;;;;;;5051617;28;20183;-60
2022/03/02 09:07:25;;;;;;;1.20;1.20;;;;;;;;;;5051206;28;20721;-59
2022/03/02 09:09:51;;;;;;;1.10;1.10;;;;;;;;;;5051087;28;20221;-61
2022/03/02 09:12:18;;;;;;;1.10;1.10;;;;;;;;;;5050708;28;20210;-61
2022/03/02 09:14:44;;;;;;;1.00;1.00;;;;;;;;;;5050986;28;20418;-61
2022/03/02 09:17:10;;;;;;;0.88;0.88;;;;;;;;;;5051075;28;20582;-61
2022/03/02 09:19:36;;;;;;;0.90;0.90;;;;;;;;;;5050913;28;20168;-61
2022/03/02 09:22:04;;;;;;;0.90;0.90;;;;;;;;;;5050395;28;20204;-61
2022/03/02 09:24:30;;;;;;;0.90;0.90;;;;;;;;;;5051039;28;20715;-62
2022/03/02 09:27:00;;;;;;;0.60;0.60;;;;;;;;;;5051194;28;20203;-62
2022/03/02 09:29:28;;;;;;;0.85;0.85;;;;;;;;;;5050812;28;20245;-62
2022/03/02 09:31:56;;;;;;;0.60;0.60;;;;;;;;;;5050570;28;20169;-62
2022/03/02 09:34:25;;;;;;;0.70;0.70;;;;;;;;;;5033135;28;20546;-60
2022/03/02 09:36:51;;;;;;;0.80;0.80;;;;;;;;;;5051124;28;20168;-60
2022/03/02 09:39:17;;;;;;;0.60;0.60;;;;;;;;;;5051098;28;20191;-61
2022/03/02 09:42:01;;;;;;;0.80;0.80;;;;;;;;;;5039262;28;20205;-59
2022/03/02 09:44:46;;;;;;;0.73;0.73;;;;;;;;;;5030272;28;20415;-61
2022/03/02 09:47:20;;;;;;;0.38;0.38;;;;;;;;;;5030068;28;20899;-58
2022/03/02 09:49:52;;;;;;;0.50;0.50;;;;;;;;;;5054560;23;20703;-62
2022/03/02 09:52:20;;;;;;;0.70;0.70;;;;;;;;;;5034538;28;20177;-62
2022/03/02 09:54:47;;;;;;;0.80;0.80;;;;;;;;;;5034447;28;20180;-61
2022/03/02 09:57:17;;;;;;;0.60;0.60;;;;;;;;;;5034719;28;20426;-62
2022/03/02 09:59:48;;;;;;;0.80;0.80;;;;;;;;;;5034800;28;20587;-62
2022/03/02 10:02:18;;;;;;;0.80;0.80;;;;;;;;;;5034256;28;20203;-62
2022/03/02 10:04:51;;;;;;;0.80;0.80;;;;;;;;;;5034584;28;20177;-61
2022/03/02 10:07:28;;;;;;;0.80;0.80;;;;;;;;;;5033828;28;20185;-62
2022/03/02 10:10:02;;;;;;;0.50;0.50;;;;;;;;;;5034507;28;20189;-61
2022/03/02 10:12:30;;;;;;;0.77;0.77;;;;;;;;;;5034379;28;20690;-62
2022/03/02 10:14:56;;;;;;;0.60;0.60;;;;;;;;;;5034492;28;20602;-62
2022/03/02 10:17:23;;;;;;;0.90;0.90;;;;;;;;;;5034650;28;20185;-62
2022/03/02 10:19:55;;;;;;;0.68;0.68;;;;;;;;;;5034418;28;20223;-62
2022/03/02 10:22:36;;;;;;;0.63;0.63;;;;;;;;;;5034084;28;20220;-62
2022/03/02 10:25:04;;;;;;;0.63;0.63;;;;;;;;;;5026900;28;20178;-62
2022/03/02 10:27:56;;;;;;;0.80;0.80;;;;;;;;;;5013978;28;20264;-62
2022/03/02 10:30:22;;;;;;;0.85;0.85;;;;;;;;;;5012510;28;20684;-62
2022/03/02 10:32:50;;;;;;;0.57;0.57;;;;;;;;;;5014549;28;20257;-62
2022/03/02 10:35:19;;;;;;;0.57;0.57;;;;;;;;;;5014491;28;20443;-62
2022/03/02 10:38:02;;;;;;;0.68;0.68;;;;;;;;;;5013091;28;20412;-62
2022/03/02 10:40:32;;;;;;;0.70;0.70;;;;;;;;;;5013932;28;20180;-62
2022/03/02 10:43:00;;;;;;;0.82;0.82;;;;;;;;;;5014234;28;20173;-62
2022/03/02 10:45:26;;;;;;;0.70;0.70;;;;;;;;;;5029850;28;20549;-62
2022/03/02 10:47:55;;;;;;;0.60;0.60;;;;;;;;;;5014185;28;20178;-62
2022/03/02 10:50:25;;;;;;;0.70;0.70;;;;;;;;;;5013863;28;20412;-61
2022/03/02 10:52:52;;;;;;;0.60;0.60;;;;;;;;;;5014224;28;20177;-62
2022/03/02 10:55:20;;;;;;;0.80;0.80;;;;;;;;;;5014200;28;20209;-61
2022/03/02 10:57:48;;;;;;;0.70;0.70;;;;;;;;;;5014042;28;20518;-62
2022/03/02 11:00:17;;;;;;;1.00;1.00;;;;;;;;;;5013002;28;20186;-62
2022/03/02 11:02:44;;;;;;;0.50;0.50;;;;;;;;;;5014018;28;20201;-61
2022/03/02 11:05:12;;;;;;;0.60;0.60;;;;;;;;;;5013796;28;20659;-62
2022/03/02 11:07:39;;;;;;;0.52;0.52;;;;;;;;;;5013844;28;20240;-62
2022/03/02 11:10:06;;;;;;;0.60;0.60;;;;;;;;;;5013511;28;20193;-61
2022/03/02 11:12:32;;;;;;;0.60;0.60;;;;;;;;;;5013687;28;20182;-62
2022/03/02 11:15:02;;;;;;;0.60;0.60;;;;;;;;;;5013755;28;20604;-62
2022/03/02 11:17:28;;;;;;;0.70;0.70;;;;;;;;;;5013571;28;20201;-62
2022/03/02 11:19:55;;;;;;;0.60;0.60;;;;;;;;;;5013621;28;20201;-61
2022/03/02 11:22:22;;;;;;;0.50;0.50;;;;;;;;;;5013794;28;20201;-62
2022/03/02 11:24:53;;;;;;;0.70;0.70;;;;;;;;;;5013558;28;20196;-62
2022/03/02 11:27:30;;;;;;;0.60;0.60;;;;;;;;;;5013516;28;20197;-62
2022/03/02 11:30:10;;;;;;;1.00;1.00;;;;;;;;;;5013195;28;20272;-61
2022/03/02 11:32:37;;;;;;;0.70;0.70;;;;;;;;;;5013379;28;20261;-62
2022/03/02 11:35:03;;;;;;;1.10;1.10;;;;;;;;;;5013315;28;20593;-62
2022/03/02 11:37:33;;;;;;;0.80;0.80;;;;;;;;;;5013345;28;20536;-62
2022/03/02 11:40:00;;;;;;;0.77;0.77;;;;;;;;;;5013129;28;20197;-62
2022/03/02 11:42:33;;;;;;;0.80;0.80;;;;;;;;;;5012708;28;20201;-62
2022/03/02 11:45:00;;;;;;;0.80;0.80;;;;;;;;;;5013165;28;20231;-62
2022/03/02 11:47:33;;;;;;;0.80;0.80;;;;;;;;;;5013356;28;20177;-62
2022/03/02 11:49:59;;;;;;;0.77;0.77;;;;;;;;;;5012880;28;20213;-62
2022/03/02 11:52:27;;;;;;;0.73;0.73;;;;;;;;;;5013114;28;20715;-62
2022/03/02 11:55:01;;;;;;;0.60;0.60;;;;;;;;;;5012891;28;20212;-62
2022/03/02 11:57:28;;;;;;;0.77;0.77;;;;;;;;;;5012862;28;20546;-62
2022/03/02 12:00:10;;;;;;;0.80;0.80;;;;;;;;;;5012821;28;20585;-61
2022/03/02 12:02:45;;;;;;;0.60;0.60;;;;;;;;;;5012779;28;20685;-62
2022/03/02 12:05:12;;;;;;;0.70;0.70;;;;;;;;;;5012845;28;20518;-61
2022/03/02 12:07:52;;;;;;;0.80;0.80;;;;;;;;;;5012665;28;20173;-61
2022/03/02 12:10:25;;;;;;;0.75;0.75;;;;;;;;;;5012297;28;20224;-61
2022/03/02 12:12:51;;;;;;;0.60;0.60;;;;;;;;;;5012615;28;20272;-61
2022/03/02 12:15:18;;;;;;;0.47;0.47;;;;;;;;;;5012709;28;20181;-61
2022/03/02 12:17:45;;;;;;;0.60;0.60;;;;;;;;;;5012962;28;20177;-61
2022/03/02 12:20:15;;;;;;;0.82;0.82;;;;;;;;;;5012359;28;20178;-61
2022/03/02 12:22:42;;;;;;;1.13;1.13;;;;;;;;;;5012376;28;20224;-61
2022/03/02 12:25:10;;;;;;;0.50;0.50;;;;;;;;;;5012651;28;20181;-61
2022/03/02 12:27:36;;;;;;;0.60;0.60;;;;;;;;;;5012525;28;20196;-61
2022/03/02 12:30:06;;;;;;;0.70;0.70;;;;;;;;;;5012199;28;20193;-61
2022/03/02 12:32:33;;;;;;;0.70;0.70;;;;;;;;;;5012172;28;20228;-61
2022/03/02 12:35:00;;;;;;;0.70;0.70;;;;;;;;;;5012315;28;20188;-60
2022/03/02 12:37:26;;;;;;;0.70;0.70;;;;;;;;;;5012274;28;20174;-61
2022/03/02 12:39:52;;;;;;;0.65;0.65;;;;;;;;;;5012186;28;20193;-61
2022/03/02 12:42:19;;;;;;;0.50;0.50;;;;;;;;;;5011821;28;20208;-61
2022/03/02 12:44:46;;;;;;;0.70;0.70;;;;;;;;;;5012098;28;20220;-61
2022/03/02 12:47:13;;;;;;;0.70;0.70;;;;;;;;;;5012096;28;20205;-61
2022/03/02 12:49:42;;;;;;;0.57;0.57;;;;;;;;;;5011795;28;20216;-61
2022/03/02 12:52:08;;;;;;;0.70;0.70;;;;;;;;;;5011804;28;20173;-61
2022/03/02 12:54:36;;;;;;;0.93;0.93;;;;;;;;;;5012082;28;20235;-61
2022/03/02 12:57:03;;;;;;;0.77;0.77;;;;;;;;;;5012035;28;20173;-60
2022/03/02 12:59:30;;;;;;;0.65;0.65;;;;;;;;;;5011806;28;20213;-60
2022/03/02 13:01:56;;;;;;;1.10;1.10;;;;;;;;;;5011066;28;20201;-61
2022/03/02 13:04:45;;;;;;;0.70;0.70;;;;;;;;;;5011841;28;20204;-61
2022/03/02 13:07:19;;;;;;;1.02;1.02;;;;;;;;;;5011692;28;20189;-61
2022/03/02 13:09:48;;;;;;;0.60;0.60;;;;;;;;;;5011720;28;20346;-61
2022/03/02 13:12:25;;;;;;;0.93;0.93;;;;;;;;;;5011503;28;20704;-61
2022/03/02 13:14:51;;;;;;;0.70;0.70;;;;;;;;;;5011835;28;20179;-61
2022/03/02 13:17:17;;;;;;;0.77;0.77;;;;;;;;;;5011710;28;20184;-61
2022/03/02 13:19:48;;;;;;;0.90;0.90;;;;;;;;;;5011842;28;20432;-61
2022/03/02 13:22:23;;;;;;;0.70;0.70;;;;;;;;;;5011339;28;20208;-61
2022/03/02 13:24:52;;;;;;;0.95;0.95;;;;;;;;;;5014928;28;20508;-61
2022/03/02 13:27:18;;;;;;;0.90;0.90;;;;;;;;;;5015801;28;20604;-59
2022/03/02 13:29:51;;;;;;;0.90;0.90;;;;;;;;;;5015547;28;20196;-61
2022/03/02 13:32:18;;;;;;;0.93;0.93;;;;;;;;;;5015616;28;20173;-61
2022/03/02 13:35:02;;;;;;;0.77;0.77;;;;;;;;;;5015603;28;20180;-59
2022/03/02 13:37:47;;;;;;;1.15;1.15;;;;;;;;;;5015298;28;20247;-60
2022/03/02 13:40:36;;;;;;;0.70;0.70;;;;;;;;;;5015267;28;20597;-61
2022/03/02 13:43:10;;;;;;;0.80;0.80;;;;;;;;;;5015568;28;20185;-61
2022/03/02 13:45:42;;;;;;;1.10;1.10;;;;;;;;;;5015249;28;20173;-59
2022/03/02 13:48:14;;;;;;;0.80;0.80;;;;;;;;;;5015091;28;20211;-60
2022/03/02 13:50:59;;;;;;;0.70;0.70;;;;;;;;;;5014881;28;20173;-61
2022/03/02 13:53:32;;;;;;;0.60;0.60;;;;;;;;;;5015219;28;20260;-61
2022/03/02 13:56:04;;;;;;;0.90;0.90;;;;;;;;;;5015063;28;20577;-59
2022/03/02 13:58:31;;;;;;;0.68;0.68;;;;;;;;;;5014992;28;20200;-60
2022/03/02 14:01:10;;;;;;;0.50;0.50;;;;;;;;;;5014789;28;20239;-61
2022/03/02 14:03:39;;;;;;;0.70;0.70;;;;;;;;;;5015054;28;20165;-60
2022/03/02 14:06:06;;;;;;;0.68;0.68;;;;;;;;;;5014932;28;20176;-61
2022/03/02 14:08:41;;;;;;;0.80;0.80;;;;;;;;;;5014753;28;20240;-60
2022/03/02 14:11:07;;;;;;;0.50;0.50;;;;;;;;;;5014783;28;20644;-61
2022/03/02 14:13:34;;;;;;;0.50;0.50;;;;;;;;;;5015055;28;20248;-61
2022/03/02 14:16:04;;;;;;;0.70;0.70;;;;;;;;;;5014904;28;20432;-61
2022/03/02 14:18:30;;;;;;;1.02;1.02;;;;;;;;;;5014876;28;20580;-61
2022/03/02 14:20:56;;;;;;;0.60;0.60;;;;;;;;;;5014314;28;20284;-61
2022/03/02 14:23:22;;;;;;;0.70;0.70;;;;;;;;;;5014866;28;20268;-64
2022/03/02 14:25:53;;;;;;;1.00;1.00;;;;;;;;;;5014674;28;20403;-60
2022/03/02 14:28:19;;;;;;;0.80;0.80;;;;;;;;;;5014670;28;20421;-61
2022/03/02 14:30:45;;;;;;;0.70;0.70;;;;;;;;;;5014364;28;20173;-61
2022/03/02 14:33:16;;;;;;;1.10;1.10;;;;;;;;;;5014591;28;20200;-61
2022/03/02 14:35:42;;;;;;;1.38;1.38;;;;;;;;;;5013344;28;20568;-61
2022/03/02 14:38:09;;;;;;;0.95;0.95;;;;;;;;;;5014504;28;20198;-60
2022/03/02 14:40:36;;;;;;;1.15;1.15;;;;;;;;;;5014164;28;20180;-61
2022/03/02 14:43:09;;;;;;;1.00;1.00;;;;;;;;;;5014218;28;20181;-61
2022/03/02 14:45:38;;;;;;;0.73;0.73;;;;;;;;;;5029530;28;20311;-61
2022/03/02 14:48:07;;;;;;;0.80;0.80;;;;;;;;;;5014083;28;20204;-61